Time;durP1;ratioP1;P1;durP2;ratioP2;P2;SDS_P1;SDS_P2;PMS_P1;PMS_P2;Temp;Humidity;BMP_temperature;BMP_pressure;BME280_temperature;BME280_humidity;BME280_pressure;Samples;Min_cycle;Max_cycle;Signal;HPM_P1;HPM_P2
2021/08/25 00:00:12;;;;;;;16.62;9.08;;;;;;;17.61;82.09;99442.51;1686130;83;21060;-82
2021/08/25 00:02:41;;;;;;;15.30;8.90;;;;;;;17.65;82.06;99450.36;1691389;85;21081;-82
2021/08/25 00:05:09;;;;;;;15.25;9.63;;;;;;;17.62;82.00;99465.34;1677583;83;21055;-80
2021/08/25 00:07:36;;;;;;;12.68;9.25;;;;;;;17.49;82.26;99465.73;1688669;83;21002;-81
2021/08/25 00:10:03;;;;;;;16.00;9.33;;;;;;;17.40;82.64;99458.84;1687600;83;21128;-81
2021/08/25 00:12:30;;;;;;;13.93;8.85;;;;;;;17.37;82.95;99468.30;1691982;82;20998;-81
2021/08/25 00:14:56;;;;;;;15.50;9.63;;;;;;;17.39;83.18;99454.45;1670375;85;21571;-81
2021/08/25 00:17:23;;;;;;;;;;;;;;;17.47;83.27;99458.91;1669682;83;21093;-81
2021/08/25 00:19:49;;;;;;;13.10;8.10;;;;;;;17.56;83.21;99453.70;1678462;85;20472;-83
2021/08/25 00:22:16;;;;;;;14.68;8.78;;;;;;;17.60;83.18;99463.49;1692465;85;21030;-82
2021/08/25 00:24:42;;;;;;;13.65;8.55;;;;;;;17.67;83.02;99463.25;1673774;83;21557;-84
2021/08/25 00:27:09;;;;;;;14.00;9.03;;;;;;;17.74;82.76;99464.95;1693159;85;21050;-83
2021/08/25 00:29:35;;;;;;;14.38;10.10;;;;;;;17.80;82.61;99466.95;1693631;83;21074;-83
2021/08/25 00:32:02;;;;;;;13.95;9.63;;;;;;;17.84;82.44;99461.03;1693804;83;21054;-83
2021/08/25 00:34:30;;;;;;;15.40;9.30;;;;;;;17.87;82.31;99457.63;1693147;83;21632;-83
2021/08/25 00:36:57;;;;;;;13.75;9.53;;;;;;;17.90;82.18;99446.77;1692678;83;21056;-81
2021/08/25 00:39:23;;;;;;;16.60;9.35;;;;;;;17.95;82.04;99440.29;1694143;83;22016;-81
2021/08/25 00:41:49;;;;;;;12.43;9.00;;;;;;;18.00;81.96;99429.08;1719173;83;21040;-82
2021/08/25 00:44:17;;;;;;;15.13;9.78;;;;;;;18.03;81.77;99435.30;1676212;84;21612;-81
2021/08/25 00:46:44;;;;;;;12.53;9.10;;;;;;;18.04;81.57;99427.30;1717216;83;21149;-81
2021/08/25 00:49:14;;;;;;;12.98;9.60;;;;;;;18.07;81.47;99429.95;1714185;83;21608;-81
2021/08/25 00:51:44;;;;;;;13.08;8.73;;;;;;;18.06;81.36;99427.80;1716506;83;20984;-80
2021/08/25 00:54:15;;;;;;;17.60;9.08;;;;;;;18.06;81.28;99425.04;1719771;82;21128;-81
2021/08/25 00:56:49;;;;;;;12.93;9.28;;;;;;;18.05;81.19;99433.05;1721840;82;20999;-82
2021/08/25 00:59:17;;;;;;;15.08;9.15;;;;;;;18.04;81.17;99431.42;1673050;84;22035;-83
2021/08/25 01:02:11;;;;;;;13.15;9.60;;;;;;;18.04;81.12;99431.42;1648391;83;21078;-82
2021/08/25 01:04:52;;;;;;;12.68;9.53;;;;;;;18.03;81.07;99435.30;1695531;83;21569;-81
2021/08/25 01:07:20;;;;;;;14.78;9.05;;;;;;;18.01;81.04;99440.34;1672126;85;20988;-82
2021/08/25 01:09:47;;;;;;;13.28;8.98;;;;;;;18.00;81.05;99435.16;1685971;83;21560;-80
2021/08/25 01:12:13;;;;;;;11.85;9.25;;;;;;;17.99;81.00;99440.44;1715419;82;21523;-80
2021/08/25 01:14:41;;;;;;;13.53;9.88;;;;;;;17.97;81.01;99439.94;1687560;82;21093;-80
2021/08/25 01:17:08;;;;;;;14.68;9.45;;;;;;;17.92;81.04;99438.76;1681798;84;21034;-80
2021/08/25 01:20:08;;;;;;;13.72;9.78;;;;;;;17.89;81.14;99435.50;1664724;83;21087;-80
2021/08/25 01:22:34;;;;;;;15.10;9.80;;;;;;;17.84;81.24;99418.36;1693427;83;21015;-80
2021/08/25 01:25:01;;;;;;;12.65;10.38;;;;;;;17.75;81.49;99412.05;1690640;83;21105;-80
2021/08/25 01:27:28;;;;;;;;;;;;;;;17.73;81.65;99404.70;1695472;85;21063;-80
2021/08/25 01:29:56;;;;;;;;;;;;;;;17.70;81.79;99409.48;1695519;83;20111;-81
2021/08/25 01:32:22;;;;;;;14.05;9.68;;;;;;;17.55;82.28;99414.89;1718005;82;20121;-81
2021/08/25 01:34:53;;;;;;;;;;;;;;;17.43;82.77;99412.56;1719719;82;21045;-81
2021/08/25 01:37:25;;;;;;;13.18;10.32;;;;;;;17.47;82.76;99406.63;1688796;83;20450;-80
2021/08/25 01:39:58;;;;;;;14.10;10.53;;;;;;;17.43;82.87;99397.65;1697571;84;21061;-81
2021/08/25 01:42:24;;;;;;;13.98;10.05;;;;;;;17.46;82.92;99391.27;1707099;83;21094;-81
2021/08/25 01:44:52;;;;;;;15.13;10.20;;;;;;;17.51;82.90;99380.89;1704529;84;21130;-80
2021/08/25 01:47:19;;;;;;;12.95;10.30;;;;;;;17.56;82.79;99373.05;1698448;84;21489;-80
2021/08/25 01:49:46;;;;;;;13.83;11.10;;;;;;;17.61;82.74;99384.70;1686384;84;21546;-81
2021/08/25 01:52:12;;;;;;;15.53;10.38;;;;;;;17.64;82.67;99380.52;1687258;82;21062;-81
2021/08/25 01:54:42;;;;;;;14.38;10.40;;;;;;;17.66;82.68;99377.67;1679003;84;21592;-80
2021/08/25 01:57:09;;;;;;;15.10;10.35;;;;;;;17.71;82.65;99378.08;1702797;84;21525;-80
2021/08/25 01:59:36;;;;;;;15.32;10.53;;;;;;;17.77;82.53;99385.02;1680781;84;21114;-81
2021/08/25 02:02:03;;;;;;;16.17;10.45;;;;;;;17.80;82.37;99376.91;1686676;84;21525;-80
2021/08/25 02:04:30;;;;;;;16.75;10.53;;;;;;;17.86;82.22;99385.78;1705636;84;21675;-80
2021/08/25 02:06:56;;;;;;;13.43;9.70;;;;;;;17.89;82.10;99379.62;1701977;83;21066;-80
2021/08/25 02:09:24;;;;;;;12.53;10.15;;;;;;;17.86;82.07;99374.21;1701230;84;21034;-80
2021/08/25 02:11:51;;;;;;;16.27;10.70;;;;;;;17.88;81.98;99366.45;1699482;82;21035;-80
2021/08/25 02:14:18;;;;;;;14.38;10.48;;;;;;;17.92;81.74;99358.34;1696939;84;21102;-80
2021/08/25 02:16:45;;;;;;;12.78;10.08;;;;;;;17.93;81.58;99359.94;1682648;83;21034;-81
2021/08/25 02:19:11;;;;;;;16.57;10.28;;;;;;;17.90;81.58;99357.27;1706638;84;21062;-81
2021/08/25 02:21:37;;;;;;;;;;;;;;;17.89;81.65;99350.70;1675481;84;21038;-80
2021/08/25 02:24:04;;;;;;;15.00;10.63;;;;;;;17.86;81.69;99339.79;1716544;82;20149;-80
2021/08/25 02:26:30;;;;;;;15.23;10.60;;;;;;;17.79;81.94;99344.19;1691773;82;21039;-81
2021/08/25 02:28:58;;;;;;;15.23;10.55;;;;;;;17.76;82.03;99351.16;1671656;84;21058;-80
2021/08/25 02:31:25;;;;;;;15.95;11.25;;;;;;;17.75;82.02;99353.67;1663914;84;21090;-80
2021/08/25 02:33:52;;;;;;;15.98;11.12;;;;;;;17.75;82.06;99355.61;1697392;84;21130;-79
2021/08/25 02:36:20;;;;;;;13.30;11.05;;;;;;;17.72;82.12;99351.58;1720349;82;21842;-79
2021/08/25 02:38:46;;;;;;;14.65;10.75;;;;;;;17.70;82.20;99348.36;1702222;82;21074;-79
2021/08/25 02:41:14;;;;;;;13.40;10.75;;;;;;;17.71;82.25;99355.45;1718875;82;21082;-80
2021/08/25 02:43:41;;;;;;;15.90;11.12;;;;;;;17.72;82.26;99351.58;1715551;83;21065;-79
2021/08/25 02:46:08;;;;;;;15.05;10.88;;;;;;;17.74;82.23;99365.03;1699531;84;21079;-80
2021/08/25 02:48:34;;;;;;;16.05;10.28;;;;;;;17.79;82.19;99367.59;1719586;83;21106;-81
2021/08/25 02:51:01;;;;;;;15.70;10.43;;;;;;;17.86;82.04;99369.27;1702333;84;21048;-80
2021/08/25 02:53:28;;;;;;;16.48;11.83;;;;;;;17.90;81.95;99371.61;1716315;83;21502;-79
2021/08/25 02:55:55;;;;;;;16.42;11.45;;;;;;;17.92;81.94;99367.16;1689206;84;21078;-80
2021/08/25 02:58:22;;;;;;;17.35;11.60;;;;;;;17.96;81.82;99361.24;1710972;83;21092;-81
2021/08/25 03:00:48;;;;;;;;;;;;;;;18.01;81.64;99350.03;1705402;83;21011;-81
2021/08/25 03:03:14;;;;;;;16.50;12.15;;;;;;;18.03;81.43;99351.91;1702823;83;20223;-81
2021/08/25 03:05:41;;;;;;;;;;;;;;;17.89;81.42;99357.59;1721885;83;21491;-80
2021/08/25 03:08:07;;;;;;;15.98;12.18;;;;;;;17.87;81.67;99357.12;1697489;83;20365;-80
2021/08/25 03:10:34;;;;;;;14.78;11.03;;;;;;;17.84;82.04;99356.41;1711786;83;21493;-80
2021/08/25 03:13:02;;;;;;;16.77;12.00;;;;;;;17.85;82.03;99360.20;1707623;82;21112;-80
2021/08/25 03:15:30;;;;;;;15.25;11.28;;;;;;;17.88;81.92;99360.13;1713737;82;21127;-80
2021/08/25 03:17:57;;;;;;;15.90;11.65;;;;;;;17.90;81.79;99354.52;1692659;82;21091;-81
2021/08/25 03:20:24;;;;;;;15.43;11.93;;;;;;;17.90;81.71;99357.84;1701491;82;21078;-80
2021/08/25 03:22:50;;;;;;;;;;;;;;;17.95;81.65;99352.17;1707410;83;21565;-80
2021/08/25 03:25:17;;;;;;;13.85;12.20;;;;;;;17.97;81.57;99351.82;1698088;84;20153;-80
2021/08/25 03:27:43;;;;;;;16.25;12.25;;;;;;;17.92;81.60;99353.39;1702724;84;21050;-81
2021/08/25 03:30:10;;;;;;;;;;;;;;;17.89;81.54;99352.08;1701283;82;21035;-80
2021/08/25 03:32:37;;;;;;;19.05;12.55;;;;;;;17.87;81.52;99357.12;1718567;82;20641;-79
2021/08/25 03:35:04;;;;;;;18.32;12.10;;;;;;;17.80;81.69;99358.20;1701282;83;21572;-80
2021/08/25 03:37:31;;;;;;;17.70;13.75;;;;;;;17.79;81.72;99357.39;1715898;83;21020;-79
2021/08/25 03:39:57;;;;;;;17.70;12.63;;;;;;;17.83;81.69;99357.54;1691913;83;21610;-78
2021/08/25 03:42:24;;;;;;;18.90;12.58;;;;;;;17.85;81.63;99358.03;1724124;82;21101;-77
2021/08/25 03:44:50;;;;;;;15.50;11.73;;;;;;;17.87;81.64;99363.45;1716704;82;21082;-81
2021/08/25 03:47:17;;;;;;;15.90;12.03;;;;;;;17.89;81.54;99365.85;1713343;82;21011;-83
2021/08/25 03:49:43;;;;;;;16.90;12.40;;;;;;;17.92;81.49;99361.09;1727681;83;21058;-80
2021/08/25 03:52:10;;;;;;;15.18;11.93;;;;;;;17.95;81.48;99359.61;1726936;81;21095;-82
2021/08/25 03:54:37;;;;;;;18.70;12.28;;;;;;;17.97;81.40;99355.95;1706992;83;21048;-82
2021/08/25 03:57:03;;;;;;;;;;;;;;;17.98;81.32;99357.01;1710841;83;21042;-83
2021/08/25 03:59:29;;;;;;;14.28;11.08;;;;;;;17.99;81.22;99350.94;1722035;82;20121;-80
2021/08/25 04:01:56;;;;;;;;;;;;;;;17.94;81.33;99344.22;1709434;82;21712;-78
2021/08/25 04:04:22;;;;;;;15.30;10.75;;;;;;;17.93;81.28;99351.67;1690289;83;20107;-78
2021/08/25 04:06:49;;;;;;;16.75;10.30;;;;;;;17.88;81.40;99350.48;1684731;84;21034;-78
2021/08/25 04:09:15;;;;;;;;;;;;;;;17.94;81.43;99355.23;1695700;83;21086;-78
2021/08/25 04:11:41;;;;;;;17.82;11.03;;;;;;;17.99;81.32;99356.45;1721608;82;20425;-78
2021/08/25 04:14:08;;;;;;;;;;;;;;;17.98;81.37;99354.82;1709338;82;21117;-79
2021/08/25 04:16:34;;;;;;;15.45;10.18;;;;;;;18.03;81.36;99351.91;1725598;82;20144;-79
2021/08/25 04:19:00;;;;;;;15.80;10.80;;;;;;;18.02;81.52;99343.39;1725134;82;21066;-78
2021/08/25 04:21:27;;;;;;;18.27;11.20;;;;;;;18.09;81.54;99342.30;1725615;83;21113;-79
2021/08/25 04:23:53;;;;;;;;;;;;;;;18.15;81.46;99332.14;1728159;83;21054;-79
2021/08/25 04:26:20;;;;;;;12.75;10.48;;;;;;;18.24;81.37;99333.50;1694106;83;20102;-79
2021/08/25 04:28:47;;;;;;;11.73;9.88;;;;;;;18.24;81.37;99337.63;1704514;83;21090;-80
2021/08/25 04:31:13;;;;;;;13.05;10.40;;;;;;;18.31;81.36;99337.91;1698367;81;21562;-80
2021/08/25 04:33:39;;;;;;;14.85;11.20;;;;;;;18.37;81.04;99336.02;1727411;82;21568;-82
2021/08/25 04:36:06;;;;;;;12.90;10.23;;;;;;;18.40;80.90;99331.20;1720280;83;21040;-80
2021/08/25 04:38:33;;;;;;;15.90;11.15;;;;;;;18.47;80.73;99334.00;1713095;82;21638;-80
2021/08/25 04:41:00;;;;;;;15.08;10.20;;;;;;;18.51;80.58;99332.23;1692791;83;21534;-80
2021/08/25 04:43:26;;;;;;;16.85;10.53;;;;;;;18.59;80.55;99336.89;1700054;82;21088;-80
2021/08/25 04:45:53;;;;;;;16.10;10.55;;;;;;;18.66;80.36;99340.73;1722112;83;20977;-79
2021/08/25 04:48:19;;;;;;;15.23;10.60;;;;;;;18.71;80.13;99338.33;1710381;82;21659;-79
2021/08/25 04:50:46;;;;;;;13.88;10.05;;;;;;;18.75;80.04;99334.58;1749709;82;21022;-79
2021/08/25 04:53:12;;;;;;;14.93;10.13;;;;;;;18.82;79.98;99337.61;1740564;81;21008;-78
2021/08/25 04:55:40;;;;;;;15.35;10.25;;;;;;;18.88;79.82;99337.63;1704213;84;21005;-79
2021/08/25 04:58:07;;;;;;;16.12;10.88;;;;;;;18.91;79.56;99343.64;1693900;82;21555;-79
2021/08/25 05:00:34;;;;;;;17.17;10.85;;;;;;;18.93;79.49;99339.39;1675683;83;21133;-78
2021/08/25 05:03:00;;;;;;;18.17;10.32;;;;;;;18.93;79.31;99340.77;1689496;83;21038;-78
2021/08/25 05:05:27;;;;;;;14.60;10.93;;;;;;;18.94;79.34;99342.97;1672126;84;21569;-78
2021/08/25 05:07:55;;;;;;;15.55;10.53;;;;;;;18.92;79.18;99346.05;1699703;83;21131;-78
2021/08/25 05:10:25;;;;;;;16.25;11.10;;;;;;;18.90;79.18;99341.45;1700613;83;21608;-78
2021/08/25 05:12:52;;;;;;;16.07;11.25;;;;;;;18.87;79.09;99339.37;1700947;83;21073;-78
2021/08/25 05:15:18;;;;;;;14.07;11.18;;;;;;;18.82;79.17;99336.23;1700703;83;21089;-79
2021/08/25 05:20:07;;;;;;;14.78;11.78;;;;;;;18.83;79.25;99330.95;1818698;78;22906;-62
2021/08/25 05:22:34;;;;;;;15.03;11.80;;;;;;;18.72;79.42;99322.03;1792644;80;21042;-63
2021/08/25 05:25:01;;;;;;;17.57;11.90;;;;;;;18.69;79.47;99318.57;1792071;79;21078;-63
2021/08/25 05:27:27;;;;;;;12.88;11.00;;;;;;;18.70;79.40;99314.11;1792340;80;20994;-63
2021/08/25 05:29:53;;;;;;;;;;;;;;;18.72;79.36;99319.28;1794868;80;21018;-63
2021/08/25 05:32:20;;;;;;;13.22;10.75;;;;;;;18.71;79.34;99318.47;1792405;80;20454;-63
2021/08/25 05:34:47;;;;;;;13.75;10.90;;;;;;;18.66;79.56;99327.52;1792093;80;21051;-63
2021/08/25 05:37:13;;;;;;;;;;;;;;;18.67;79.71;99323.03;1787136;80;20981;-63
2021/08/25 05:39:39;;;;;;;13.05;10.18;;;;;;;18.72;79.79;99315.14;1787889;80;20415;-63
2021/08/25 05:42:07;;;;;;;16.07;11.03;;;;;;;18.69;79.89;99326.28;1792309;80;21105;-64
2021/08/25 05:44:33;;;;;;;14.90;11.15;;;;;;;18.71;79.75;99316.27;1792204;80;21541;-63
2021/08/25 05:47:00;;;;;;;12.50;10.93;;;;;;;18.75;79.76;99315.84;1792551;80;20985;-62
2021/08/25 05:49:28;;;;;;;15.68;10.85;;;;;;;18.80;79.78;99315.09;1791682;80;21022;-62
2021/08/25 05:51:55;;;;;;;15.55;10.93;;;;;;;18.89;79.75;99313.06;1792523;80;20951;-63
2021/08/25 05:54:22;;;;;;;17.23;11.97;;;;;;;18.92;79.52;99312.17;1792283;80;21206;-63
2021/08/25 05:56:48;;;;;;;13.03;10.93;;;;;;;18.95;79.25;99317.01;1792552;80;20939;-63
2021/08/25 05:59:15;;;;;;;15.13;10.72;;;;;;;18.99;79.37;99317.95;1786176;80;21050;-62
2021/08/25 06:01:41;;;;;;;14.90;11.30;;;;;;;19.04;79.22;99318.54;1787216;80;21437;-62
2021/08/25 06:04:08;;;;;;;15.03;11.50;;;;;;;19.07;78.93;99319.80;1760812;81;21029;-63
2021/08/25 06:06:35;;;;;;;15.38;11.38;;;;;;;19.10;79.03;99314.98;1774827;80;20995;-63
2021/08/25 06:09:06;;;;;;;14.03;11.28;;;;;;;19.17;78.92;99315.25;1776829;80;21046;-63
2021/08/25 06:11:38;;;;;;;16.77;11.25;;;;;;;19.25;78.90;99319.32;1788188;80;21421;-63
2021/08/25 06:14:01;;;;;;;15.40;11.78;;;;;;;19.33;78.74;99317.06;1791485;80;21105;-63
2021/08/25 06:16:29;;;;;;;15.60;12.20;;;;;;;19.43;78.78;99322.75;1785931;80;20975;-63
2021/08/25 06:18:57;;;;;;;13.65;11.18;;;;;;;19.52;78.62;99314.39;1783162;80;21085;-63
2021/08/25 06:21:24;;;;;;;15.08;11.22;;;;;;;19.60;78.38;99314.28;1792220;80;20994;-62
2021/08/25 06:23:50;;;;;;;15.23;11.95;;;;;;;19.71;77.90;99316.03;1775305;80;21063;-63
2021/08/25 06:26:17;;;;;;;14.80;11.70;;;;;;;19.78;77.60;99320.42;1755727;82;20964;-65
2021/08/25 06:28:43;;;;;;;14.38;11.45;;;;;;;19.81;77.26;99320.55;1755888;82;21102;-65
2021/08/25 06:31:09;;;;;;;15.78;12.15;;;;;;;19.84;76.87;99320.42;1776086;80;21021;-63
2021/08/25 06:33:36;;;;;;;14.07;11.30;;;;;;;19.85;76.86;99318.72;1791710;80;21113;-63
2021/08/25 06:36:03;;;;;;;13.88;11.93;;;;;;;19.88;76.76;99320.78;1792088;80;21065;-65
2021/08/25 06:38:30;;;;;;;15.25;12.23;;;;;;;19.88;76.71;99318.59;1788430;80;21014;-65
2021/08/25 06:40:57;;;;;;;13.98;11.90;;;;;;;19.90;76.73;99321.84;1786299;80;21469;-66
2021/08/25 06:43:24;;;;;;;17.87;11.15;;;;;;;19.93;76.71;99325.29;1775645;81;21019;-66
2021/08/25 06:45:51;;;;;;;16.20;12.35;;;;;;;19.94;76.61;99331.05;1788766;80;21014;-66
2021/08/25 06:48:18;;;;;;;16.82;11.53;;;;;;;19.95;76.67;99335.98;1788392;80;21940;-65
2021/08/25 06:50:45;;;;;;;13.85;11.38;;;;;;;19.97;76.60;99337.27;1772895;80;21024;-66
2021/08/25 06:53:11;;;;;;;13.43;10.90;;;;;;;19.96;76.42;99340.36;1776783;81;21043;-67
2021/08/25 06:55:39;;;;;;;12.75;11.28;;;;;;;19.94;76.41;99339.91;1776819;80;21125;-66
2021/08/25 06:58:05;;;;;;;14.28;11.28;;;;;;;19.93;76.46;99346.01;1774279;81;21560;-67
2021/08/25 07:00:33;;;;;;;14.75;11.50;;;;;;;19.89;76.65;99343.70;1776605;80;21612;-66
2021/08/25 07:02:59;;;;;;;15.58;11.30;;;;;;;19.92;76.78;99350.48;1783502;80;20990;-67
2021/08/25 07:05:26;;;;;;;13.43;11.40;;;;;;;19.93;76.73;99344.63;1791891;80;21505;-68
2021/08/25 07:07:53;;;;;;;15.98;11.50;;;;;;;19.97;76.74;99349.70;1781532;80;21007;-65
2021/08/25 07:10:19;;;;;;;14.80;11.70;;;;;;;19.99;76.86;99354.30;1789386;80;21066;-67
2021/08/25 07:12:47;;;;;;;15.95;11.70;;;;;;;20.05;77.06;99350.75;1754397;80;20993;-65
2021/08/25 07:15:17;;;;;;;14.33;11.53;;;;;;;20.13;77.23;99350.63;1791977;80;21607;-62
2021/08/25 07:17:46;;;;;;;15.10;11.45;;;;;;;20.25;77.30;99351.22;1789208;80;21010;-61
2021/08/25 07:20:13;;;;;;;18.67;12.35;;;;;;;20.37;77.24;99347.09;1773779;79;21038;-65
2021/08/25 07:22:40;;;;;;;14.23;11.85;;;;;;;20.48;76.94;99336.38;1741311;80;20988;-64
2021/08/25 07:25:07;;;;;;;15.65;11.83;;;;;;;20.51;76.51;99342.62;1774046;79;21086;-65
2021/08/25 07:27:34;;;;;;;14.95;12.85;;;;;;;20.55;76.64;99344.89;1772832;80;21110;-64
2021/08/25 07:30:01;;;;;;;15.25;11.25;;;;;;;20.51;76.13;99337.09;1774637;80;21120;-64
2021/08/25 07:32:27;;;;;;;14.30;11.43;;;;;;;20.48;75.98;99344.67;1735786;80;21017;-65
2021/08/25 07:34:54;;;;;;;14.75;11.55;;;;;;;20.47;75.96;99330.64;1776285;80;21059;-64
2021/08/25 07:37:20;;;;;;;13.40;11.50;;;;;;;20.40;75.63;99332.61;1773891;80;21538;-65
2021/08/25 07:39:48;;;;;;;14.10;11.68;;;;;;;20.31;75.78;99333.28;1783277;79;21083;-65
2021/08/25 07:42:15;;;;;;;15.93;10.63;;;;;;;20.27;76.12;99340.62;1768732;80;20995;-65
2021/08/25 07:44:42;;;;;;;17.20;12.73;;;;;;;20.27;76.37;99340.08;1763181;80;21061;-65
2021/08/25 07:47:09;;;;;;;17.45;11.57;;;;;;;20.20;76.20;99334.28;1735638;80;21020;-66
2021/08/25 07:49:35;;;;;;;13.88;12.10;;;;;;;20.16;76.46;99336.69;1786766;79;21342;-65
2021/08/25 07:52:03;;;;;;;11.25;10.05;;;;;;;20.12;76.42;99342.70;1761868;79;21076;-64
2021/08/25 07:54:31;;;;;;;14.20;10.78;;;;;;;20.06;76.70;99349.02;1774633;79;21062;-65
2021/08/25 07:56:57;;;;;;;14.07;10.72;;;;;;;20.00;76.75;99340.73;1784176;80;21012;-65
2021/08/25 07:59:23;;;;;;;14.38;11.08;;;;;;;19.99;77.12;99345.20;1774921;80;21070;-64
2021/08/25 08:01:50;;;;;;;11.73;10.50;;;;;;;20.05;77.24;99346.01;1767667;80;21530;-65
2021/08/25 08:04:16;;;;;;;11.65;10.45;;;;;;;20.12;77.22;99345.47;1779228;80;21043;-64
2021/08/25 08:06:44;;;;;;;11.25;10.00;;;;;;;20.25;77.12;99340.17;1784815;80;20976;-64
2021/08/25 08:09:10;;;;;;;12.15;10.60;;;;;;;20.44;76.94;99338.25;1785185;80;21046;-65
2021/08/25 08:11:38;;;;;;;11.45;9.70;;;;;;;20.70;77.07;99335.33;1740430;82;21023;-64
2021/08/25 08:14:06;;;;;;;12.45;10.10;;;;;;;21.07;77.17;99329.14;1728050;82;21059;-65
2021/08/25 08:16:34;;;;;;;12.18;10.98;;;;;;;21.42;76.33;99330.76;1730087;83;21517;-65
2021/08/25 08:19:05;;;;;;;11.85;10.10;;;;;;;21.66;74.22;99326.47;1729347;83;21033;-64
2021/08/25 08:21:31;;;;;;;12.10;10.08;;;;;;;21.83;73.60;99324.75;1727368;83;21377;-64
2021/08/25 08:23:58;;;;;;;11.38;10.13;;;;;;;22.02;72.18;99323.27;1726510;83;21537;-64
2021/08/25 08:26:28;;;;;;;12.00;10.28;;;;;;;22.11;71.34;99319.73;1725413;82;21038;-64
2021/08/25 08:28:55;;;;;;;12.13;9.90;;;;;;;22.13;70.39;99326.55;1727690;82;21133;-65
2021/08/25 08:31:22;;;;;;;12.23;10.13;;;;;;;22.13;69.98;99333.48;1726131;83;20936;-63
2021/08/25 08:33:48;;;;;;;10.60;9.55;;;;;;;22.07;70.12;99330.73;1726662;83;21066;-65
2021/08/25 08:36:16;;;;;;;11.05;9.95;;;;;;;22.04;70.42;99326.48;1728135;83;21031;-65
2021/08/25 08:38:43;;;;;;;10.70;9.10;;;;;;;22.03;70.48;99325.70;1728310;83;21105;-64
2021/08/25 08:41:09;;;;;;;11.22;9.30;;;;;;;22.13;70.51;99327.94;1728362;83;21109;-64
2021/08/25 08:43:42;;;;;;;10.25;9.08;;;;;;;22.25;69.85;99324.23;1728172;83;21086;-64
2021/08/25 08:46:16;;;;;;;10.98;8.98;;;;;;;22.12;69.45;99319.97;1727961;83;21034;-64
2021/08/25 08:48:43;;;;;;;11.00;9.38;;;;;;;22.01;70.31;99324.43;1721647;83;21135;-64
2021/08/25 08:51:11;;;;;;;11.97;9.63;;;;;;;22.03;70.22;99327.09;1728397;83;21076;-64
2021/08/25 08:53:38;;;;;;;12.28;9.68;;;;;;;22.07;70.33;99321.03;1711105;83;21035;-64
2021/08/25 08:56:04;;;;;;;9.63;8.63;;;;;;;22.06;69.64;99320.02;1726286;83;21556;-64
2021/08/25 08:58:31;;;;;;;11.30;8.60;;;;;;;21.94;69.74;99317.31;1673441;83;21051;-63
2021/08/25 09:00:57;;;;;;;9.60;7.97;;;;;;;22.04;69.66;99321.75;1724432;83;21004;-62
2021/08/25 09:03:26;;;;;;;9.80;8.80;;;;;;;22.21;69.39;99321.38;1740296;81;21541;-61
2021/08/25 09:05:56;;;;;;;8.98;7.90;;;;;;;22.37;68.90;99324.73;1778149;81;21080;-61
2021/08/25 09:08:27;;;;;;;10.32;7.58;;;;;;;22.47;68.71;99325.56;1775646;81;21006;-63
2021/08/25 09:11:13;;;;;;;9.25;7.87;;;;;;;22.58;68.20;99319.68;1774859;81;20995;-64
2021/08/25 09:13:49;;;;;;;9.85;8.03;;;;;;;22.72;67.64;99317.27;1778245;81;21431;-63
2021/08/25 09:16:34;;;;;;;8.55;7.67;;;;;;;22.88;66.92;99322.78;1772005;81;20933;-63
2021/08/25 09:19:06;;;;;;;8.43;7.53;;;;;;;22.88;66.51;99317.23;1762203;81;21034;-64
2021/08/25 09:21:44;;;;;;;9.20;8.20;;;;;;;22.93;66.51;99313.56;1743457;81;20967;-64
2021/08/25 09:24:11;;;;;;;9.40;8.40;;;;;;;22.93;66.05;99310.80;1762222;81;21070;-64
2021/08/25 09:26:59;;;;;;;9.33;8.03;;;;;;;23.00;65.58;99312.33;1772442;81;21513;-65
2021/08/25 09:29:25;;;;;;;10.08;7.85;;;;;;;22.99;65.19;99303.78;1771256;81;21011;-65
2021/08/25 09:31:52;;;;;;;8.20;7.30;;;;;;;22.90;65.32;99307.94;1778128;81;20967;-65
2021/08/25 09:34:32;;;;;;;10.88;8.70;;;;;;;22.84;65.17;99305.23;1776743;81;21695;-66
2021/08/25 09:37:15;;;;;;;10.45;7.70;;;;;;;22.63;65.59;99300.80;1778043;81;20999;-64
2021/08/25 09:39:47;;;;;;;10.20;7.83;;;;;;;22.63;65.96;99300.00;1777540;80;21043;-65
2021/08/25 09:42:17;;;;;;;8.38;7.55;;;;;;;22.85;66.05;99296.53;1773414;81;20946;-64
2021/08/25 09:44:47;;;;;;;8.78;7.67;;;;;;;23.02;65.65;99288.38;1774834;81;21122;-64
2021/08/25 09:47:13;;;;;;;8.98;7.97;;;;;;;23.13;64.99;99282.47;1771343;81;21462;-64
2021/08/25 09:49:40;;;;;;;8.30;7.20;;;;;;;23.21;64.90;99277.26;1777536;81;21062;-64
2021/08/25 09:52:07;;;;;;;7.30;6.30;;;;;;;23.33;65.28;99270.17;1778143;81;21070;-64
2021/08/25 09:54:35;;;;;;;7.80;6.08;;;;;;;23.59;65.43;99273.09;1755818;81;21121;-64
2021/08/25 09:57:01;;;;;;;7.15;6.40;;;;;;;23.81;63.89;99273.47;1778208;81;21448;-64
2021/08/25 09:59:28;;;;;;;7.05;6.30;;;;;;;23.93;62.96;99267.70;1732800;82;21047;-64
2021/08/25 10:01:54;;;;;;;8.53;6.87;;;;;;;24.04;61.44;99272.86;1747169;82;21008;-64
2021/08/25 10:04:21;;;;;;;7.37;6.53;;;;;;;24.04;61.44;99272.86;1753070;80;21009;-65
2021/08/25 10:06:49;;;;;;;6.92;6.22;;;;;;;23.95;61.37;99268.15;1691782;84;21517;-65
2021/08/25 10:09:17;;;;;;;6.87;6.17;;;;;;;23.92;61.19;99273.84;1778374;79;21816;-62
2021/08/25 10:11:47;;;;;;;7.10;6.28;;;;;;;23.92;61.19;99273.84;1777963;81;21046;-65
2021/08/25 10:14:18;;;;;;;7.60;6.28;;;;;;;23.84;61.16;99269.94;1748397;81;21599;-64
2021/08/25 10:16:47;;;;;;;7.22;6.17;;;;;;;23.71;61.70;99263.17;1749855;81;20994;-64
2021/08/25 10:19:39;;;;;;;7.90;5.60;;;;;;;23.75;61.75;99259.06;1778641;80;21533;-64
2021/08/25 10:22:21;;;;;;;7.65;5.85;;;;;;;23.75;61.75;99259.06;1786735;80;21870;-64
2021/08/25 10:25:08;;;;;;;7.40;5.92;;;;;;;23.70;61.53;99255.22;1785704;80;21070;-65
2021/08/25 10:27:36;;;;;;;6.80;6.10;;;;;;;23.72;61.61;99260.61;1786903;80;21605;-64
2021/08/25 10:30:09;;;;;;;6.30;5.70;;;;;;;23.81;61.39;99251.23;1786462;80;21553;-66
2021/08/25 10:32:53;;;;;;;7.12;5.65;;;;;;;23.87;61.33;99254.72;1786702;80;21802;-65
2021/08/25 10:35:27;;;;;;;7.05;5.65;;;;;;;23.89;61.32;99254.33;1758844;80;21066;-66
2021/08/25 10:37:53;;;;;;;8.55;6.25;;;;;;;24.06;60.89;99243.50;1738167;82;20956;-65
2021/08/25 10:40:32;;;;;;;6.00;5.33;;;;;;;24.06;60.89;99243.50;1724710;80;21080;-67
2021/08/25 10:43:02;;;;;;;6.53;5.17;;;;;;;24.03;60.37;99233.70;1786801;80;21517;-67
2021/08/25 10:45:48;;;;;;;5.10;4.42;;;;;;;23.95;60.02;99236.95;1786343;80;21035;-66
2021/08/25 10:48:14;;;;;;;4.70;4.05;;;;;;;23.85;60.19;99231.22;1775691;80;21002;-64
2021/08/25 10:50:58;;;;;;;4.75;3.87;;;;;;;23.79;60.91;99229.36;1785403;79;21062;-65
2021/08/25 10:53:36;;;;;;;4.40;3.83;;;;;;;23.89;60.61;99227.92;1786526;80;20991;-65
2021/08/25 10:56:18;;;;;;;5.28;3.27;;;;;;;23.96;60.64;99214.94;1786325;80;21070;-65
2021/08/25 10:58:55;;;;;;;5.40;2.90;;;;;;;24.08;60.25;99222.28;1767272;80;21060;-65
2021/08/25 11:01:34;;;;;;;3.30;3.00;;;;;;;24.29;59.39;99210.12;1755159;82;21542;-68
2021/08/25 11:04:04;;;;;;;3.60;3.08;;;;;;;24.45;58.16;99214.91;1765569;80;21070;-66
2021/08/25 11:06:40;;;;;;;2.42;2.20;;;;;;;24.54;57.72;99208.48;1786371;80;21077;-65
2021/08/25 11:09:32;;;;;;;4.28;2.50;;;;;;;24.70;57.44;99203.52;1765754;80;21103;-65
2021/08/25 11:12:14;;;;;;;2.30;1.40;;;;;;;24.78;55.63;99213.56;1769119;80;20987;-64
2021/08/25 11:14:46;;;;;;;2.20;1.60;;;;;;;24.59;53.89;99210.92;1784762;79;21055;-65
2021/08/25 11:17:26;;;;;;;2.05;1.40;;;;;;;24.59;53.89;99210.92;1779937;80;20981;-66
2021/08/25 11:19:58;;;;;;;1.80;1.30;;;;;;;24.54;55.28;99213.25;1779394;80;21074;-64
2021/08/25 11:22:44;;;;;;;2.30;1.17;;;;;;;24.61;55.27;99209.17;1786777;80;20991;-67
2021/08/25 11:25:13;;;;;;;2.83;1.57;;;;;;;24.70;55.47;99192.97;1786368;79;21066;-64
2021/08/25 11:27:48;;;;;;;1.40;1.17;;;;;;;24.75;56.10;99196.83;1786642;80;20968;-66
2021/08/25 11:30:27;;;;;;;2.10;1.20;;;;;;;24.75;56.10;99196.83;1786333;80;21034;-64
2021/08/25 11:33:05;;;;;;;5.10;1.20;;;;;;;24.76;56.42;99190.86;1786036;80;21018;-64
2021/08/25 11:35:44;;;;;;;2.22;1.10;;;;;;;24.76;55.80;99195.65;1786364;80;21022;-65